Flight Track Log - Related Links

Times and Time Zones

All times are in EDT time to prevent confusion due to time zone crossing. See the UAL481 flight status page for this flight to view local times or setup timezone preferences in your user account.

Time Position Orientation Groundspeed Altitude Reporting Facility
EDT Latitude Longitude Course Direction KTS MPH feet Rate Location/Type
Tue 06:24:20 PM 42.7653 -73.8061 324° Northwest 135 155 1,400  Level Boston Center
Tue 06:25:39 PM 42.8294 -73.8414 338° Northwest 230 265 3,800 2,336 Climbing Boston Center
Tue 06:26:31 PM 42.8808 -73.8881 326° Northwest 263 303 6,500 3,482 Climbing Boston Center
Tue 06:27:00 PM 42.8253 -74.2888 284° West  Level FlightAware Approximate
Tue 06:27:31 PM 42.9489 -73.9433 329° Northwest 271 312 10,300  Level Boston Center
Tue 06:28:00 PM 42.8467 -74.4131 283° West  Level FlightAware Approximate
Tue 06:28:31 PM 43.0192 -74.0019 329° Northwest 290 334 11,900  Level Boston Center
Tue 06:29:00 PM 42.8693 -74.5359 324° Northwest  Level FlightAware Approximate
Tue 06:29:31 PM 43.0339 -74.1331 279° West 314 361 14,400  Level Boston Center
Tue 06:30:31 PM 43.0425 -74.2497 276° West 341 392 17,100 2,400 Climbing Boston Center
Tue 06:31:31 PM 43.0567 -74.4036 277° West 359 413 19,200 2,050 Climbing Boston Center
Tue 06:32:31 PM 43.0961 -74.5328 293° West 366 421 21,200 1,850 Climbing Boston Center
Tue 06:33:31 PM 43.1372 -74.6681 293° West 380 437 22,900 2,000 Climbing Boston Center
Tue 06:34:31 PM 43.1825 -74.8064 294° West 391 450 25,200 2,050 Climbing Boston Center
Tue 06:35:31 PM 43.2339 -74.9394 298° West 391 450 27,000 1,800 Climbing Boston Center
Tue 06:36:31 PM 43.2872 -75.0642 300° West 391 450 28,800 1,300 Climbing Boston Center
Tue 06:37:31 PM 43.3308 -75.1633 301° West 391 450 29,600 1,050 Climbing Boston Center
Tue 06:38:31 PM 43.3536 -75.3328 281° West 387 445 30,900 1,550 Climbing Boston Center
Tue 06:39:31 PM 43.3628 -75.4675 275° West 381 438 32,700 1,450 Climbing Boston Center
Tue 06:40:31 PM 43.3631 -75.6047 270° West 367 422 33,800 923 Climbing Boston Center
Tue 06:42:20 PM 43.3333 -75.8500 261° West 380 437 35,300 1,030 Climbing Toronto Center
Tue 06:43:20 PM 43.3333 -75.9833 270° West 380 437 36,700 1,350 Climbing Toronto Center
Tue 06:44:20 PM 43.3333 -76.1333 270° West 360 414 38,000 650 Climbing Toronto Center
Tue 06:45:20 PM 43.3333 -76.2667 270° West 370 426 38,000  Level Toronto Center
Tue 06:46:20 PM 43.3167 -76.4000 260° West 370 426 38,000  Level Toronto Center
Tue 06:47:20 PM 43.3000 -76.5667 262° West 380 437 38,000  Level Toronto Center
Tue 06:48:20 PM 43.3167 -76.7000 280° West 380 437 38,000  Level Toronto Center
Tue 06:49:20 PM 43.3000 -76.8333 260° West 390 449 38,000  Level Toronto Center
Tue 06:50:20 PM 43.3000 -77.0000 270° West 390 449 38,000  Level Toronto Center
Tue 06:51:20 PM 43.2833 -77.1333 260° West 390 449 38,000 -50 Level Toronto Center
Tue 06:52:20 PM 43.2667 -77.3000 262° West 390 449 37,900 -100 Descending Toronto Center
Tue 06:53:20 PM 43.2833 -77.4333 280° West 390 449 37,800 41 Descending Toronto Center
Tue 06:54:47 PM 43.2739 -77.6692 267° West 392 451 38,000 82 Climbing Cleveland Center
Tue 06:55:47 PM 43.2650 -77.8178 265° West 392 451 38,000 -50 Level Cleveland Center
Tue 06:56:47 PM 43.2581 -77.9664 266° West 392 451 37,900  Descending Cleveland Center
Tue 06:57:47 PM 43.2508 -78.1147 266° West 392 451 38,000 50 Climbing Cleveland Center
Tue 06:58:47 PM 43.2394 -78.2636 264° West 392 451 38,000  Level Cleveland Center
Tue 06:59:47 PM 43.2339 -78.4119 267° West 392 451 38,000  Level Cleveland Center
Tue 07:00:47 PM 43.2219 -78.5633 264° West 392 451 38,000  Level Cleveland Center
Tue 07:01:47 PM 43.2161 -78.7144 267° West 397 457 38,000  Level Cleveland Center
Tue 07:02:47 PM 43.2061 -78.8686 265° West 404 465 38,000  Level Cleveland Center
Tue 07:03:20 PM 43.1833 -78.9500 249° West 400 460 38,000  Level Toronto Center
Tue 07:04:20 PM 43.1833 -79.0833 270° West 400 460 38,000  Level Toronto Center
Tue 07:05:20 PM 43.1667 -79.2500 262° West 400 460 38,000  Level Toronto Center
Tue 07:06:20 PM 43.1667 -79.4000 270° West 400 460 38,000  Level Toronto Center
Tue 07:07:20 PM 43.1500 -79.5500 261° West 410 472 38,000  Level Toronto Center
Tue 07:08:20 PM 43.1333 -79.7000 261° West 410 472 38,000  Level Toronto Center
Tue 07:09:20 PM 43.1333 -79.8667 270° West 410 472 38,000  Level Toronto Center
Tue 07:10:20 PM 43.1167 -80.0167 261° West 400 460 38,000 -50 Level Toronto Center
Tue 07:11:20 PM 43.1000 -80.1833 262° West 410 472 37,900  Descending Toronto Center
Tue 07:12:20 PM 43.1000 -80.3167 270° West 410 472 38,000 50 Climbing Toronto Center
Tue 07:13:20 PM 43.0833 -80.4833 262° West 410 472 38,000  Level Toronto Center
Tue 07:14:20 PM 43.0667 -80.6333 261° West 410 472 38,000  Level Toronto Center
Tue 07:15:20 PM 43.0667 -80.8000 270° West 410 472 38,000  Level Toronto Center
Tue 07:16:20 PM 43.0333 -80.9500 253° West 410 472 38,000 -50 Level Toronto Center
Tue 07:17:20 PM 43.0167 -81.1000 261° West 410 472 37,900  Descending Toronto Center
Tue 07:18:20 PM 43.0167 -81.2500 270° West 410 472 38,000 50 Climbing Toronto Center
Tue 07:19:20 PM 43.0167 -81.4167 270° West 410 472 38,000  Level Toronto Center
Tue 07:20:20 PM 43.0167 -81.5667 270° West 410 472 38,000  Level Toronto Center
Tue 07:21:20 PM 43.0167 -81.7333 270° West 410 472 38,000 -50 Level Toronto Center
Tue 07:22:20 PM 43.0167 -81.8667 270° West 410 472 37,900  Descending Toronto Center
Tue 07:23:20 PM 43.0000 -82.0333 262° West 410 472 38,000 50 Climbing Toronto Center
Tue 07:24:20 PM 43.0000 -82.1833 270° West 410 472 38,000  Level Toronto Center
Tue 07:25:20 PM 43.0000 -82.3500 270° West 410 472 38,000 -100 Level Toronto Center
Tue 07:26:20 PM 43.0000 -82.5000 270° West 410 472 37,800 -500 Descending Toronto Center
Tue 07:27:20 PM 42.9833 -82.6500 261° West 390 449 37,000 -727 Descending Toronto Center
Tue 07:27:59 PM 43.0258 -82.7331 305° West 402 463 36,600 -727 Descending Cleveland Center
Tue 07:28:59 PM 43.0564 -82.8789 286° West 397 457 35,800 -800 Descending Cleveland Center
Tue 07:29:59 PM 43.0847 -83.0222 285° West 391 450 35,000 -850 Descending Cleveland Center
Tue 07:30:59 PM 43.1128 -83.1683 285° West 396 456 34,100 -500 Descending Cleveland Center
Tue 07:31:59 PM 43.1406 -83.3203 284° West 402 463 34,000 -150 Descending Cleveland Center
Tue 07:32:59 PM 43.1619 -83.4722 281° West 402 463 33,800 -500 Descending Cleveland Center
Tue 07:33:59 PM 43.1125 -83.6064 243° Southwest 383 441 33,000 -650 Descending Cleveland Center
Tue 07:34:59 PM 43.0161 -83.7039 216° Southwest 385 443 32,500 -650 Descending Cleveland Center
Tue 07:35:59 PM 42.9558 -83.8456 240° Southwest 411 473 31,700 -900 Descending Cleveland Center
Tue 07:36:59 PM 42.9386 -84.0122 262° West 420 483 30,700 -850 Descending Cleveland Center
Tue 07:37:59 PM 42.9231 -84.1786 263° West 434 499 30,000 -442 Descending Cleveland Center
Tue 07:38:34 PM 42.9150 -84.2792 264° West 445 512 30,000  Level Chicago Center
Tue 07:39:36 PM 42.8978 -84.4456 262° West 445 512 30,000  Level Chicago Center
Tue 07:40:38 PM 42.8806 -84.6133 262° West 447 514 30,000  Level Chicago Center
Tue 07:41:40 PM 42.8636 -84.7811 262° West 447 514 30,000  Level Chicago Center
Tue 07:42:42 PM 42.8419 -84.9825 262° West 448 516 30,000  Level Chicago Center
Tue 07:43:44 PM 42.8242 -85.1492 262° West 446 513 30,000 -48 Level Chicago Center
Tue 07:44:46 PM 42.8064 -85.3172 262° West 448 516 29,900 -726 Descending Chicago Center
Tue 07:45:48 PM 42.7883 -85.4772 261° West 433 498 28,500 -1,728 Descending Chicago Center
Tue 07:46:51 PM 42.7633 -85.6272 257° West 409 471 26,300 -2,064 Descending Chicago Center
Tue 07:47:53 PM 42.7361 -85.7772 256° West 400 460 24,200 -1,984 Descending Chicago Center
Tue 07:48:55 PM 42.7103 -85.9167 256° West 392 451 22,200 -1,645 Descending Chicago Center
Tue 07:49:57 PM 42.6786 -86.0906 256° West 390 449 20,800 -1,016 Descending Chicago Center
Tue 07:50:59 PM 42.6508 -86.2439 256° West 409 471 20,100 -387 Descending Chicago Center
Tue 07:52:01 PM 42.6217 -86.3928 255° West 408 470 20,000 -97 Descending Chicago Center
Tue 07:53:03 PM 42.5939 -86.5433 256° West 410 472 19,900 -871 Descending Chicago Center
Tue 07:54:05 PM 42.5633 -86.7089 256° West 407 468 18,200 -1,742 Descending Chicago Center
Tue 07:55:07 PM 42.5322 -86.8311 251° West 389 448 16,300 -2,032 Descending Chicago Center
Tue 07:56:09 PM 42.4967 -86.9631 250° West 377 434 14,000 -2,256 Descending Chicago Center
Tue 07:57:12 PM 42.4528 -87.1139 249° West 360 414 11,600 -1,680 Descending Chicago Center
Tue 07:58:14 PM 42.4200 -87.2372 250° West 351 404 10,500 -774 Descending Chicago Center
Tue 07:59:16 PM 42.3864 -87.3567 249° West 343 395 10,000 -242 Descending Chicago Center
Tue 08:00:18 PM 42.3517 -87.4867 250° West 344 396 10,000  Level Chicago Center
Tue 08:01:20 PM 42.2972 -87.5781 231° Southwest 321 369 10,000 -145 Level Chicago Center
Tue 08:02:22 PM 42.2364 -87.6419 218° Southwest 280 322 9,700 -532 Descending Chicago Center
Tue 08:03:24 PM 42.1733 -87.7086 218° Southwest 245 282 8,900 -774 Descending Chicago Center
Tue 08:04:26 PM 42.1283 -87.7561 218° Southwest 213 245 8,100 -677 Descending Chicago Center
Tue 08:05:28 PM 42.0911 -87.8056 225° Southwest 199 229 7,500 -528 Descending Chicago Center
Tue 08:06:31 PM 42.0914 -87.8725 270° West 182 209 7,000 -240 Descending Chicago Center
Tue 08:07:33 PM 42.0914 -87.9403 270° West 184 212 7,000  Level Chicago Center
Tue 08:08:35 PM 42.0914 -88.0217 270° West 183 211 7,000 -321 Level Chicago Center
Tue 08:09:44 PM 42.1000 -88.1000 278° West 179 206 6,300 -780 Descending Chicago TRACON
Tue 08:10:38 PM 42.1000 -88.1667 270° West 188 216 5,400 -947 Descending Chicago TRACON
Tue 08:11:38 PM 42.0500 -88.2000 206° Southwest 195 224 4,500 -700 Descending Chicago TRACON
Tue 08:12:38 PM 42.0167 -88.1667 143° Southeast 175 201 4,000 -520 Descending Chicago TRACON
Tue 08:13:45 PM 41.9858 -88.1014 122° Southeast 173 199 3,400 -750 Descending Chicago Center
Tue 08:14:38 PM 41.9833 -88.0500 94° East 160 184 2,500 -903 Descending Chicago TRACON
Tue 08:15:38 PM 41.9833 -88.0000 90° East 132 152 1,700 -744 Descending Chicago TRACON
Tue 08:16:39 PM 41.9833 -87.9500 90° East 131 151 1,000 -689 Descending Chicago TRACON
Tue 08:18:00 PM 41.9817 -87.9067 124° Southeast  Level Estimated
Tue 08:25:00 PM 41.9817 -87.9067 124° Southeast  Level Estimated

Login

Don't have an account? Register now (free) for customized features, flight alerts, and more!